Time;durP1;ratioP1;P1;durP2;ratioP2;P2;SDS_P1;SDS_P2;PMS_P1;PMS_P2;Temp;Humidity;BMP_temperature;BMP_pressure;BME280_temperature;BME280_humidity;BME280_pressure;Samples;Min_cycle;Max_cycle;Signal;HPM_P1;HPM_P2
2021/08/25 00:01:07;;;;;;;11.80;5.90;;;;;;;11.73;95.55;99158.84;5005238;28;20030;-66
2021/08/25 00:03:33;;;;;;;17.83;6.18;;;;;;;11.70;95.52;99164.16;5005073;28;20065;-66
2021/08/25 00:05:58;;;;;;;11.20;6.72;;;;;;;11.63;95.59;99157.25;5005039;28;20053;-66
2021/08/25 00:08:24;;;;;;;10.13;6.10;;;;;;;11.63;95.82;99151.97;5004589;28;20022;-66
2021/08/25 00:10:49;;;;;;;12.15;6.40;;;;;;;11.56;95.97;99150.31;5005180;28;20022;-66
2021/08/25 00:13:15;;;;;;;10.68;6.38;;;;;;;11.54;96.17;99157.34;5005150;28;20033;-66
2021/08/25 00:15:42;;;;;;;11.80;6.70;;;;;;;11.51;96.14;99146.84;5005364;28;20026;-66
2021/08/25 00:18:09;;;;;;;16.00;6.80;;;;;;;11.54;96.17;99151.19;5005030;28;20026;-66
2021/08/25 00:20:35;;;;;;;17.73;6.68;;;;;;;11.52;96.10;99143.31;5004772;28;20054;-66
2021/08/25 00:23:01;;;;;;;16.40;7.03;;;;;;;11.53;96.14;99144.19;5004862;28;20085;-66
2021/08/25 00:25:29;;;;;;;12.07;6.35;;;;;;;11.50;95.95;99134.56;5004928;28;20030;-66
2021/08/25 00:27:55;;;;;;;14.80;5.93;;;;;;;11.47;95.40;99134.63;5003739;28;20048;-66
2021/08/25 00:30:21;;;;;;;13.32;6.47;;;;;;;11.39;95.93;99135.63;5004860;28;20321;-66
2021/08/25 00:32:46;;;;;;;10.98;6.63;;;;;;;11.41;96.12;99134.72;5004609;28;20026;-66
2021/08/25 00:35:12;;;;;;;12.27;6.35;;;;;;;11.45;96.31;99131.13;5004775;28;20029;-66
2021/08/25 00:37:38;;;;;;;12.43;6.80;;;;;;;11.38;96.20;99129.47;5004823;28;20026;-66
2021/08/25 00:40:04;;;;;;;16.13;6.30;;;;;;;11.35;96.14;99140.06;5004689;28;20356;-66
2021/08/25 00:42:30;;;;;;;10.57;5.63;;;;;;;11.34;95.99;99127.78;5004589;28;20265;-66
2021/08/25 00:44:55;;;;;;;11.15;6.05;;;;;;;11.26;95.89;99127.00;5004653;28;20026;-66
2021/08/25 00:47:21;;;;;;;17.42;5.80;;;;;;;11.24;95.97;99126.19;5004615;28;20022;-66
2021/08/25 00:49:46;;;;;;;14.32;6.00;;;;;;;11.19;95.96;99128.00;5004563;28;20076;-66
2021/08/25 00:52:12;;;;;;;11.88;6.40;;;;;;;11.15;96.04;99121.03;5004543;28;20022;-66
2021/08/25 00:54:38;;;;;;;20.20;8.40;;;;;;;11.13;96.15;99122.81;5004528;28;20026;-66
2021/08/25 00:57:04;;;;;;;10.57;6.50;;;;;;;11.19;96.20;99120.09;5004496;28;20036;-66
2021/08/25 00:59:32;;;;;;;13.43;6.47;;;;;;;11.12;95.94;99118.44;5004506;28;20026;-66
2021/08/25 01:02:12;;;;;;;13.88;6.57;;;;;;;11.09;96.33;99121.13;5003053;28;20022;-66
2021/08/25 01:04:52;;;;;;;14.80;6.00;;;;;;;11.04;96.55;99107.13;5004636;23;20117;-68
2021/08/25 01:07:20;;;;;;;13.80;7.35;;;;;;;11.02;96.63;99119.47;4984975;28;20058;-68
2021/08/25 01:09:45;;;;;;;11.60;5.68;;;;;;;10.90;96.47;99120.50;4985001;28;20270;-68
2021/08/25 01:12:11;;;;;;;11.65;6.53;;;;;;;10.95;96.68;99117.81;4984818;28;20023;-68
2021/08/25 01:14:38;;;;;;;14.48;5.90;;;;;;;10.87;96.61;99115.28;4985020;28;20026;-68
2021/08/25 01:17:04;;;;;;;10.40;6.00;;;;;;;10.97;96.53;99110.75;4984905;28;20025;-68
2021/08/25 01:19:36;;;;;;;9.23;5.50;;;;;;;10.99;96.10;99108.97;4987959;28;20285;-68
2021/08/25 01:22:02;;;;;;;13.77;6.45;;;;;;;10.85;95.72;99108.25;4988833;28;20216;-68
2021/08/25 01:24:29;;;;;;;21.85;7.30;;;;;;;10.87;96.29;99101.22;4988612;28;20035;-68
2021/08/25 01:26:57;;;;;;;17.40;6.65;;;;;;;10.85;96.30;99105.63;4975961;28;20015;-68
2021/08/25 01:29:26;;;;;;;15.27;6.68;;;;;;;10.87;96.36;99095.97;4988730;28;20023;-68
2021/08/25 01:31:54;;;;;;;13.85;7.47;;;;;;;10.84;96.29;99098.63;4988667;28;20026;-68
2021/08/25 01:34:20;;;;;;;13.25;7.05;;;;;;;10.89;96.54;99102.09;4988617;28;20093;-68
2021/08/25 01:36:49;;;;;;;12.93;6.63;;;;;;;10.93;96.68;99103.78;4988592;28;20198;-68
2021/08/25 01:39:15;;;;;;;14.63;6.97;;;;;;;10.96;96.61;99101.09;4988528;28;20023;-68
2021/08/25 01:41:40;;;;;;;12.45;7.75;;;;;;;10.91;96.18;99105.56;4988653;28;20046;-68
2021/08/25 01:44:06;;;;;;;13.27;7.50;;;;;;;10.93;96.40;99103.78;4988251;28;20027;-68
2021/08/25 01:46:34;;;;;;;17.65;8.68;;;;;;;11.01;96.76;99101.03;4988390;28;20081;-68
2021/08/25 01:49:00;;;;;;;21.08;10.43;;;;;;;11.19;97.29;99104.28;4988329;28;20027;-68
2021/08/25 01:51:29;;;;;;;13.98;8.98;;;;;;;11.25;97.11;99098.94;4988278;28;20019;-68
2021/08/25 01:53:55;;;;;;;17.13;9.65;;;;;;;11.27;96.82;99101.53;4988239;28;20034;-68
2021/08/25 01:56:21;;;;;;;18.98;9.52;;;;;;;11.22;96.33;99095.47;4988267;28;20288;-68
2021/08/25 01:58:46;;;;;;;21.30;9.98;;;;;;;11.25;96.58;99096.28;4988240;28;20053;-68
2021/08/25 02:01:12;;;;;;;12.63;6.88;;;;;;;11.22;95.97;99090.19;4987883;28;20325;-68
2021/08/25 02:03:37;;;;;;;15.07;7.45;;;;;;;11.17;95.54;99082.34;4987780;28;20033;-68
2021/08/25 02:06:03;;;;;;;18.38;10.75;;;;;;;11.21;96.51;99089.34;4988091;28;20054;-69
2021/08/25 02:08:29;;;;;;;19.70;10.90;;;;;;;11.28;96.98;99080.44;4988034;28;20090;-69
2021/08/25 02:10:55;;;;;;;19.27;9.02;;;;;;;11.32;96.78;99082.13;4987970;28;20027;-68
2021/08/25 02:13:20;;;;;;;14.68;8.70;;;;;;;11.19;96.08;99080.56;4987915;28;20325;-68
2021/08/25 02:15:45;;;;;;;14.70;8.15;;;;;;;11.10;95.89;99087.75;4987840;28;20082;-68
2021/08/25 02:18:11;;;;;;;13.23;8.18;;;;;;;10.99;95.54;99085.25;4987858;28;20033;-68
2021/08/25 02:20:36;;;;;;;13.70;6.82;;;;;;;10.88;95.36;99076.63;4987630;28;20054;-68
2021/08/25 02:23:02;;;;;;;13.32;7.22;;;;;;;10.74;95.14;99075.94;4987765;28;20030;-68
2021/08/25 02:25:27;;;;;;;14.38;7.00;;;;;;;10.67;95.06;99076.94;4987735;28;20030;-68
2021/08/25 02:27:53;;;;;;;12.02;6.57;;;;;;;10.55;95.31;99069.16;4987661;28;20246;-68
2021/08/25 02:30:18;;;;;;;12.25;6.55;;;;;;;10.56;95.71;99076.16;4987228;28;20086;-68
2021/08/25 02:32:44;;;;;;;12.23;6.90;;;;;;;10.54;95.83;99072.69;4987556;28;20030;-68
2021/08/25 02:35:10;;;;;;;10.88;6.18;;;;;;;10.47;96.25;99071.00;4987418;28;20037;-68
2021/08/25 02:37:36;;;;;;;14.98;7.53;;;;;;;10.39;96.38;99068.50;4987515;28;20031;-68
2021/08/25 02:40:01;;;;;;;14.25;7.43;;;;;;;10.37;96.41;99074.63;4987436;28;20042;-68
2021/08/25 02:42:26;;;;;;;13.38;7.88;;;;;;;10.39;96.91;99068.50;4987299;28;20023;-68
2021/08/25 02:44:52;;;;;;;10.25;7.47;;;;;;;10.39;96.81;99057.09;4987366;28;20037;-68
2021/08/25 02:47:17;;;;;;;10.68;6.93;;;;;;;10.32;96.33;99066.81;4987334;28;20388;-68
2021/08/25 02:49:43;;;;;;;12.32;6.45;;;;;;;10.34;96.12;99064.16;4987057;28;20058;-68
2021/08/25 02:52:08;;;;;;;9.88;7.05;;;;;;;10.38;95.90;99064.09;4987002;28;20027;-68
2021/08/25 02:54:34;;;;;;;15.45;6.93;;;;;;;10.28;95.74;99072.09;4987223;28;20222;-68
2021/08/25 02:56:59;;;;;;;11.20;6.70;;;;;;;10.32;95.72;99060.69;4987175;28;20033;-68
2021/08/25 02:59:24;;;;;;;13.85;7.63;;;;;;;10.34;95.71;99058.88;4987302;28;20220;-68
2021/08/25 03:01:50;;;;;;;12.32;6.72;;;;;;;10.31;95.35;99058.91;4987002;28;20085;-68
2021/08/25 03:04:15;;;;;;;12.55;6.93;;;;;;;10.19;94.92;99061.72;4986668;28;20050;-68
2021/08/25 03:06:41;;;;;;;11.50;7.53;;;;;;;10.09;94.88;99063.56;4987048;28;20253;-68
2021/08/25 03:09:06;;;;;;;14.00;8.60;;;;;;;10.09;95.38;99063.56;4987188;28;20030;-69
2021/08/25 03:11:34;;;;;;;13.38;6.88;;;;;;;10.11;95.29;99053.03;4986894;28;20217;-69
2021/08/25 03:13:59;;;;;;;12.70;6.82;;;;;;;10.07;95.08;99059.22;4987087;28;20213;-69
2021/08/25 03:16:24;;;;;;;12.20;7.30;;;;;;;9.92;95.32;99051.44;4986629;28;20026;-69
2021/08/25 03:18:50;;;;;;;10.02;5.75;;;;;;;9.76;94.67;99048.09;4986724;28;20037;-69
2021/08/25 03:21:15;;;;;;;16.00;7.90;;;;;;;9.85;95.63;99047.13;4986653;28;20321;-69
2021/08/25 03:23:41;;;;;;;13.15;7.50;;;;;;;9.82;95.88;99044.53;4986702;28;20038;-69
2021/08/25 03:26:06;;;;;;;11.07;6.95;;;;;;;9.71;96.00;99033.28;4986604;28;20027;-69
2021/08/25 03:28:32;;;;;;;12.50;8.40;;;;;;;9.82;96.88;99031.41;4986508;28;20345;-69
2021/08/25 03:30:57;;;;;;;14.18;8.13;;;;;;;9.84;97.12;99035.75;4986475;28;20022;-69
2021/08/25 03:33:23;;;;;;;14.98;8.90;;;;;;;9.90;96.74;99037.47;4986479;28;20054;-69
2021/08/25 03:35:49;;;;;;;16.35;8.52;;;;;;;9.90;96.57;99032.19;4986429;28;20030;-69
2021/08/25 03:38:14;;;;;;;13.57;8.35;;;;;;;9.88;96.78;99031.34;4986348;28;20261;-69
2021/08/25 03:40:40;;;;;;;15.38;7.60;;;;;;;9.85;96.04;99031.38;4986108;28;20026;-69
2021/08/25 03:43:05;;;;;;;11.98;7.15;;;;;;;9.82;95.07;99027.03;4985091;28;20022;-69
2021/08/25 03:45:31;;;;;;;17.65;6.90;;;;;;;9.81;94.85;99025.25;4986242;28;20134;-69
2021/08/25 03:47:56;;;;;;;10.43;6.85;;;;;;;9.74;94.98;99022.69;4983874;28;20086;-69
2021/08/25 03:50:22;;;;;;;10.07;6.18;;;;;;;9.72;94.86;99024.50;4986128;28;20321;-69
2021/08/25 03:52:47;;;;;;;10.52;6.57;;;;;;;9.63;94.72;99025.44;4986167;28;20038;-69
2021/08/25 03:55:12;;;;;;;11.07;6.28;;;;;;;9.64;94.76;99023.69;4986048;28;20034;-69
2021/08/25 03:57:38;;;;;;;12.90;6.43;;;;;;;9.60;94.44;99025.47;4986020;28;20027;-69
2021/08/25 04:00:04;;;;;;;18.83;8.10;;;;;;;9.56;95.17;99022.91;4985953;28;20092;-69
2021/08/25 04:02:37;;;;;;;14.70;7.32;;;;;;;9.59;95.60;99017.59;5142861;27;20116;-68
2021/08/25 04:05:03;;;;;;;13.63;7.30;;;;;;;9.46;95.02;99027.34;5106009;28;20035;-68
2021/08/25 04:07:28;;;;;;;12.43;7.18;;;;;;;9.50;95.01;99026.44;5101490;28;20039;-68
2021/08/25 04:09:53;;;;;;;17.05;7.55;;;;;;;9.55;95.31;99024.63;5101546;28;20253;-68
2021/08/25 04:12:19;;;;;;;13.75;8.30;;;;;;;9.51;95.14;99030.81;5101228;28;20047;-68
2021/08/25 04:14:44;;;;;;;16.77;8.32;;;;;;;9.53;95.31;99021.16;5101359;28;20315;-68
2021/08/25 04:17:09;;;;;;;11.88;7.50;;;;;;;9.57;95.43;99030.75;5101319;28;20027;-68
2021/08/25 04:19:35;;;;;;;14.57;7.75;;;;;;;9.57;95.18;99024.63;5101258;28;20020;-68
2021/08/25 04:22:00;;;;;;;17.33;8.40;;;;;;;9.51;95.45;99030.81;5101156;28;20342;-68
2021/08/25 04:24:26;;;;;;;15.05;8.10;;;;;;;9.47;95.58;99028.22;5101198;28;20027;-68
2021/08/25 04:26:52;;;;;;;13.57;7.15;;;;;;;9.53;95.16;99034.31;5100943;28;20079;-68
2021/08/25 04:29:18;;;;;;;12.60;7.90;;;;;;;9.51;95.32;99035.19;5101138;28;20070;-68
2021/08/25 04:31:43;;;;;;;14.32;8.50;;;;;;;9.49;95.05;99036.97;5101186;28;20289;-68
2021/08/25 04:34:09;;;;;;;14.38;7.75;;;;;;;9.54;95.18;99036.03;5100802;28;20307;-68
2021/08/25 04:36:34;;;;;;;15.00;9.07;;;;;;;9.58;95.13;99047.38;5100968;28;20096;-68
2021/08/25 04:38:59;;;;;;;21.38;11.95;;;;;;;9.70;95.93;99036.75;5100698;28;20020;-68
2021/08/25 04:41:25;;;;;;;27.60;12.55;;;;;;;9.83;96.76;99033.13;5100826;28;20020;-68
2021/08/25 04:43:50;;;;;;;19.77;13.25;;;;;;;10.01;97.60;99038.19;5100806;28;20020;-68
2021/08/25 04:46:17;;;;;;;31.48;17.63;;;;;;;10.35;98.16;99039.59;5099933;28;20039;-68
2021/08/25 04:48:43;;;;;;;33.85;18.27;;;;;;;10.54;98.31;99035.84;5100798;28;20314;-68
2021/08/25 04:51:11;;;;;;;40.42;18.30;;;;;;;10.62;97.82;99028.72;5100717;28;20026;-68
2021/08/25 04:53:36;;;;;;;29.88;17.27;;;;;;;10.73;97.70;99021.56;5100689;28;20092;-68
2021/08/25 04:56:02;;;;;;;19.40;12.68;;;;;;;10.69;96.65;99025.09;5100609;28;20030;-68
2021/08/25 04:58:27;;;;;;;22.92;14.73;;;;;;;10.73;96.56;99026.81;5100579;28;20028;-68
2021/08/25 05:00:52;;;;;;;21.17;12.77;;;;;;;10.65;95.41;99023.41;5094245;28;20036;-68
2021/08/25 05:03:18;;;;;;;18.17;11.07;;;;;;;10.49;94.43;99032.41;5080133;28;20091;-68
2021/08/25 05:05:43;;;;;;;15.23;9.88;;;;;;;10.43;94.35;99032.47;5080185;28;20066;-68
2021/08/25 05:08:09;;;;;;;16.17;9.57;;;;;;;10.36;94.51;99036.06;5080035;28;20337;-68
2021/08/25 05:10:34;;;;;;;18.58;11.10;;;;;;;10.42;94.94;99033.38;5079977;28;20028;-68
2021/08/25 05:12:59;;;;;;;16.38;10.15;;;;;;;10.53;95.42;99042.00;5072068;28;20025;-68
2021/08/25 05:15:25;;;;;;;20.17;9.68;;;;;;;10.68;94.33;99039.16;5066679;28;20337;-68
2021/08/25 05:17:50;;;;;;;13.02;8.23;;;;;;;11.03;92.47;99031.63;5066638;28;20021;-68
2021/08/25 05:20:16;;;;;;;16.58;9.50;;;;;;;11.39;91.71;99031.06;5066743;28;20044;-68
2021/08/25 05:22:41;;;;;;;16.10;7.20;;;;;;;11.77;91.27;99041.84;5066821;28;20024;-68
2021/08/25 05:25:07;;;;;;;16.15;7.60;;;;;;;12.05;89.40;99044.88;5066732;28;20027;-68
2021/08/25 05:27:33;;;;;;;11.45;7.38;;;;;;;12.25;87.34;99048.84;5066486;28;20219;-68
2021/08/25 05:29:58;;;;;;;12.88;7.35;;;;;;;12.41;86.95;99045.03;5066455;28;20025;-68
2021/08/25 05:32:24;;;;;;;9.27;6.47;;;;;;;12.79;85.07;99053.00;5066639;28;20013;-68
2021/08/25 05:34:49;;;;;;;14.80;7.05;;;;;;;13.27;83.70;99050.22;5066312;28;20335;-68
2021/08/25 05:37:14;;;;;;;10.85;7.57;;;;;;;13.26;85.60;99048.50;5066318;28;20051;-69
2021/08/25 05:39:40;;;;;;;12.90;7.30;;;;;;;13.67;84.09;99040.41;5066251;28;20242;-69
2021/08/25 05:42:05;;;;;;;11.40;7.15;;;;;;;13.85;83.31;99050.50;5066110;28;20025;-69
2021/08/25 05:44:31;;;;;;;10.27;6.72;;;;;;;14.16;83.68;99054.09;5066121;28;20048;-69
2021/08/25 05:46:57;;;;;;;12.13;6.70;;;;;;;14.74;81.00;99051.56;5066082;28;20024;-69
2021/08/25 05:49:23;;;;;;;12.50;8.25;;;;;;;15.03;80.68;99048.97;5065981;28;20036;-69
2021/08/25 05:51:48;;;;;;;15.35;9.48;;;;;;;15.18;80.61;99048.47;5066008;28;20013;-69
2021/08/25 05:54:14;;;;;;;12.45;6.47;;;;;;;15.63;78.42;99041.72;5065960;28;20097;-69
2021/08/25 05:56:40;;;;;;;10.63;6.95;;;;;;;15.39;79.54;99053.13;5065904;28;20028;-69
2021/08/25 05:59:06;;;;;;;12.68;8.13;;;;;;;15.60;79.15;99040.97;5065870;28;20247;-69
2021/08/25 06:01:31;;;;;;;14.95;7.43;;;;;;;16.21;76.68;99036.16;5065609;28;20033;-69
2021/08/25 06:03:57;;;;;;;16.00;8.35;;;;;;;15.83;78.03;99044.59;5065718;28;20044;-69
2021/08/25 06:06:36;;;;;;;13.27;7.45;;;;;;;16.11;77.44;99039.19;5065749;28;20216;-69
2021/08/25 06:09:05;;;;;;;14.20;8.95;;;;;;;16.65;75.13;99043.41;5065691;28;20035;-69
2021/08/25 06:11:31;;;;;;;16.65;7.75;;;;;;;16.92;74.68;99042.38;5065577;28;20055;-69
2021/08/25 06:13:56;;;;;;;12.80;7.80;;;;;;;17.45;72.75;99044.75;5065525;28;20029;-69
2021/08/25 06:16:22;;;;;;;13.55;8.15;;;;;;;17.89;72.15;99041.13;5065508;28;20025;-69
2021/08/25 06:18:47;;;;;;;15.77;8.05;;;;;;;18.01;71.05;99037.94;5065514;28;20024;-69
2021/08/25 06:21:16;;;;;;;14.30;7.95;;;;;;;18.12;71.50;99035.69;5065379;28;20025;-69
2021/08/25 06:23:43;;;;;;;19.20;8.43;;;;;;;18.13;69.85;99038.28;5064955;28;20079;-69
2021/08/25 06:26:09;;;;;;;14.15;7.97;;;;;;;18.56;69.73;99031.97;5064929;28;20025;-69
2021/08/25 06:28:34;;;;;;;12.88;7.65;;;;;;;18.88;67.83;99039.34;5065323;28;20051;-69
2021/08/25 06:30:59;;;;;;;11.90;7.43;;;;;;;19.02;67.18;99031.59;5065230;28;20021;-69
2021/08/25 06:33:25;;;;;;;16.40;8.13;;;;;;;19.11;67.52;99042.69;5065211;28;20332;-69
2021/08/25 06:35:50;;;;;;;13.00;7.28;;;;;;;19.27;65.58;99046.41;5065167;28;20084;-69
2021/08/25 06:38:16;;;;;;;14.20;8.70;;;;;;;19.35;65.89;99046.03;5065122;28;20025;-69
2021/08/25 06:40:41;;;;;;;14.57;7.03;;;;;;;20.03;64.55;99043.47;5064986;28;20025;-69
2021/08/25 06:43:06;;;;;;;18.23;8.15;;;;;;;19.65;66.26;99041.84;5065022;28;20029;-69
2021/08/25 06:45:32;;;;;;;16.48;8.63;;;;;;;19.67;66.02;99037.31;5064950;28;20248;-69
2021/08/25 06:47:57;;;;;;;13.10;7.70;;;;;;;19.71;64.50;99038.88;5064930;28;20092;-69
2021/08/25 06:50:23;;;;;;;17.38;7.82;;;;;;;20.51;64.89;99040.13;5064945;28;20025;-69
2021/08/25 06:52:48;;;;;;;14.73;7.55;;;;;;;20.56;64.07;99038.94;5064829;28;20071;-69
2021/08/25 06:55:13;;;;;;;16.90;7.63;;;;;;;20.79;63.42;99038.56;5064854;28;20025;-69
2021/08/25 06:57:39;;;;;;;11.95;7.30;;;;;;;20.93;62.28;99036.00;5064991;28;20316;-69
2021/08/25 07:00:06;;;;;;;12.98;7.22;;;;;;;20.77;62.20;99035.13;5064723;28;20079;-69
2021/08/25 07:02:31;;;;;;;14.50;8.13;;;;;;;21.32;61.99;99021.41;5064425;28;20107;-69
2021/08/25 07:04:56;;;;;;;16.38;8.43;;;;;;;20.89;61.57;99030.91;5064527;28;20048;-69
2021/08/25 07:07:22;;;;;;;17.23;8.30;;;;;;;21.30;60.69;99029.53;5064577;28;20024;-69
2021/08/25 07:09:47;;;;;;;14.85;8.00;;;;;;;21.86;59.73;99023.63;5064536;28;20024;-69
2021/08/25 07:12:12;;;;;;;14.18;7.43;;;;;;;21.85;60.10;99024.56;5064751;28;20044;-69
2021/08/25 07:14:38;;;;;;;13.88;7.85;;;;;;;21.94;59.10;99016.84;5064426;28;20025;-69
2021/08/25 07:17:03;;;;;;;13.18;7.05;;;;;;;22.09;59.11;99015.09;5064391;28;20086;-69
2021/08/25 07:19:29;;;;;;;15.68;7.70;;;;;;;21.91;58.31;99032.25;5064394;28;20028;-69
2021/08/25 07:21:54;;;;;;;11.88;7.53;;;;;;;22.32;58.63;99038.69;5064246;28;20021;-69
2021/08/25 07:24:20;;;;;;;12.48;7.38;;;;;;;22.24;59.36;99033.78;5064518;28;20028;-69
2021/08/25 07:26:45;;;;;;;11.32;7.55;;;;;;;22.76;56.80;99034.19;5064234;28;20021;-69
2021/08/25 07:29:11;;;;;;;11.70;7.47;;;;;;;22.20;57.10;99029.56;5064201;28;20069;-69
2021/08/25 07:31:36;;;;;;;11.25;6.97;;;;;;;23.13;55.84;99020.19;5064160;28;20025;-69
2021/08/25 07:34:03;;;;;;;13.85;7.63;;;;;;;22.90;56.92;99031.50;5064139;28;20091;-69
2021/08/25 07:36:28;;;;;;;12.90;7.80;;;;;;;22.85;57.41;99017.53;5064103;28;20020;-69
2021/08/25 07:38:53;;;;;;;12.27;7.80;;;;;;;23.24;55.32;99032.00;5064114;28;20369;-69
2021/08/25 07:41:19;;;;;;;12.93;7.45;;;;;;;23.24;56.30;99023.06;5063950;28;20028;-69
2021/08/25 07:43:45;;;;;;;12.60;8.18;;;;;;;23.13;57.55;99022.88;5064053;28;20082;-70
2021/08/25 07:46:11;;;;;;;13.82;7.47;;;;;;;23.37;55.18;99020.44;5063974;28;20084;-70
2021/08/25 07:48:36;;;;;;;16.60;7.50;;;;;;;23.25;55.41;99016.72;5063934;28;20029;-70
2021/08/25 07:51:08;;;;;;;16.88;7.22;;;;;;;23.75;55.10;99022.38;5063885;28;20312;-70
2021/08/25 07:53:33;;;;;;;14.77;6.95;;;;;;;23.34;56.48;99021.53;5063876;28;20020;-70
2021/08/25 07:55:59;;;;;;;14.38;7.97;;;;;;;22.99;55.82;99014.81;5063887;28;20052;-70
2021/08/25 07:58:24;;;;;;;16.23;7.90;;;;;;;23.48;55.63;99013.44;5063835;28;20354;-70
2021/08/25 08:00:50;;;;;;;12.30;7.45;;;;;;;24.02;53.71;99020.56;5063567;28;20067;-70
2021/08/25 08:03:15;;;;;;;14.05;7.28;;;;;;;23.64;54.77;99011.47;5063708;28;20028;-70
2021/08/25 08:05:43;;;;;;;13.25;7.15;;;;;;;23.82;53.72;99007.53;5063732;28;20036;-70
2021/08/25 08:08:08;;;;;;;16.90;8.15;;;;;;;22.83;55.58;99004.19;5063709;28;20021;-70
2021/08/25 08:10:34;;;;;;;13.95;7.13;;;;;;;23.25;53.79;98995.25;5063734;28;20013;-70
2021/08/25 08:12:59;;;;;;;12.10;6.22;;;;;;;23.41;53.96;98995.97;5063683;28;20030;-70
2021/08/25 08:15:28;;;;;;;12.85;7.47;;;;;;;23.23;54.16;98991.81;5063700;28;20090;-70
2021/08/25 08:17:54;;;;;;;17.45;7.70;;;;;;;24.06;52.63;99000.56;5063673;28;20031;-70
2021/08/25 08:20:19;;;;;;;14.13;6.53;;;;;;;23.49;53.16;98995.47;5063585;28;20029;-70
2021/08/25 08:22:45;;;;;;;10.68;7.30;;;;;;;23.29;53.11;98994.13;5063709;28;20084;-70
2021/08/25 08:25:10;;;;;;;14.70;7.65;;;;;;;23.60;52.97;99001.88;5063610;28;20021;-70
2021/08/25 08:27:36;;;;;;;12.15;6.55;;;;;;;23.89;52.54;98998.09;5063578;28;20324;-70
2021/08/25 08:30:02;;;;;;;14.15;7.35;;;;;;;23.82;52.15;98996.78;5063790;28;20086;-70
2021/08/25 08:32:27;;;;;;;18.75;6.82;;;;;;;24.89;49.37;98992.88;5063533;28;20311;-70
2021/08/25 08:34:53;;;;;;;11.38;6.88;;;;;;;25.45;47.42;99001.41;5063544;28;20092;-70
2021/08/25 08:37:18;;;;;;;13.27;6.85;;;;;;;24.49;50.48;99010.06;5063470;28;20088;-70
2021/08/25 08:39:44;;;;;;;14.07;7.05;;;;;;;25.08;48.68;98993.28;5063540;28;20027;-69
2021/08/25 08:42:30;;;;;;;11.27;6.57;;;;;;;25.61;48.36;98997.47;5063360;28;20082;-69
2021/08/25 08:44:56;;;;;;;14.77;6.97;;;;;;;24.88;47.87;98998.38;5063652;28;20021;-70
2021/08/25 08:47:26;;;;;;;12.65;6.95;;;;;;;24.72;47.90;99001.31;5063829;28;20254;-70
2021/08/25 08:49:56;;;;;;;11.82;6.75;;;;;;;25.31;47.92;98994.31;5067210;28;20314;-70
2021/08/25 08:52:22;;;;;;;10.52;6.57;;;;;;;24.55;51.11;98996.19;5067224;28;20025;-70
2021/08/25 08:54:54;;;;;;;14.68;7.40;;;;;;;24.87;50.82;98993.97;5067181;28;20387;-70
2021/08/25 08:57:21;;;;;;;11.73;7.13;;;;;;;24.90;49.30;98989.22;5067056;28;20025;-70
2021/08/25 08:59:47;;;;;;;12.50;6.78;;;;;;;24.90;49.69;98989.22;5067056;28;20029;-70
2021/08/25 09:02:13;;;;;;;16.52;6.82;;;;;;;24.76;48.71;98989.34;5066761;28;20040;-69
2021/08/25 09:04:46;;;;;;;12.80;6.40;;;;;;;25.74;45.12;98998.28;5066837;28;20088;-69
2021/08/25 09:07:20;;;;;;;12.52;6.28;;;;;;;25.33;46.86;98987.00;5066832;28;20066;-69
2021/08/25 09:09:54;;;;;;;11.15;6.40;;;;;;;25.46;47.80;98986.97;5067072;28;20147;-69
2021/08/25 09:12:19;;;;;;;12.80;6.18;;;;;;;25.55;48.33;98980.88;5067039;28;20025;-69
2021/08/25 09:14:45;;;;;;;10.38;5.93;;;;;;;26.38;45.24;98994.25;5067031;28;20031;-69
2021/08/25 09:17:10;;;;;;;16.08;6.72;;;;;;;25.57;43.08;98978.94;5066688;28;20378;-69
2021/08/25 09:19:36;;;;;;;13.15;6.15;;;;;;;25.38;46.14;98981.28;5066639;28;20120;-69
2021/08/25 09:22:02;;;;;;;12.10;6.32;;;;;;;25.40;42.96;98977.47;5066505;28;20092;-69
2021/08/25 09:27:53;;;;;;;10.85;6.00;;;;;;;26.14;46.82;98979.94;5066547;28;20067;-69
2021/08/25 09:30:18;;;;;;;10.60;6.00;;;;;;;25.64;47.34;98978.38;5066714;28;20256;-69
2021/08/25 09:32:43;;;;;;;17.80;7.03;;;;;;;25.67;47.06;98974.56;5066392;28;20027;-69
2021/08/25 09:35:09;;;;;;;12.40;6.15;;;;;;;25.49;45.34;98981.31;5066350;28;20025;-69
2021/08/25 09:37:34;;;;;;;12.48;6.45;;;;;;;24.94;44.17;98985.34;5066561;28;20354;-69
2021/08/25 09:40:04;;;;;;;13.45;5.97;;;;;;;25.11;45.31;98984.09;5066218;28;20312;-69
2021/08/25 09:42:51;;;;;;;10.60;5.85;;;;;;;25.70;43.89;98977.03;5066146;28;20342;-69
2021/08/25 09:45:18;;;;;;;13.15;6.20;;;;;;;25.67;44.35;98990.75;5066270;28;20093;-69
2021/08/25 09:47:54;;;;;;;12.27;6.65;;;;;;;25.54;44.45;98989.94;5066381;28;20077;-69
2021/08/25 09:50:25;;;;;;;14.95;5.82;;;;;;;25.51;42.81;98980.25;5066333;28;20024;-69
2021/08/25 09:52:51;;;;;;;13.27;6.47;;;;;;;25.60;42.19;98973.31;5066029;28;20058;-69
2021/08/25 09:55:32;;;;;;;12.50;5.90;;;;;;;25.63;42.64;98979.34;5065971;28;20254;-69
2021/08/25 09:57:58;;;;;;;12.98;6.75;;;;;;;25.74;41.93;98970.44;5066009;28;20027;-69
2021/08/25 10:00:24;;;;;;;11.30;5.85;;;;;;;26.22;41.37;98966.72;5065587;28;20028;-69
2021/08/25 10:02:50;;;;;;;15.45;6.70;;;;;;;26.11;41.74;98959.47;5065913;28;20028;-69
2021/08/25 10:05:23;;;;;;;10.82;5.47;;;;;;;26.59;42.93;98960.16;5065680;28;20088;-69
2021/08/25 10:07:49;;;;;;;13.02;6.38;;;;;;;26.76;42.29;98959.72;5065846;28;20029;-69
2021/08/25 10:10:15;;;;;;;14.02;6.30;;;;;;;26.50;41.32;98955.50;5065654;28;20312;-69
2021/08/25 10:12:40;;;;;;;24.65;6.88;;;;;;;26.14;40.36;98955.66;5065615;28;20021;-69
2021/08/25 10:15:31;;;;;;;10.48;5.88;;;;;;;27.24;43.69;98948.53;5065608;28;20025;-69
2021/08/25 10:17:58;;;;;;;13.03;6.50;;;;;;;26.86;39.50;98958.03;5065569;28;20048;-69
2021/08/25 10:20:23;;;;;;;15.00;6.38;;;;;;;25.47;41.34;98959.03;5065458;28;20250;-69
2021/08/25 10:22:50;;;;;;;12.80;6.20;;;;;;;25.80;40.56;98948.41;5065723;28;20329;-69
2021/08/25 10:25:16;;;;;;;13.68;6.68;;;;;;;25.70;42.50;98944.69;5065422;28;20025;-69
2021/08/25 10:28:00;;;;;;;16.55;6.00;;;;;;;25.90;42.71;98946.72;5065642;28;20105;-69
2021/08/25 10:30:26;;;;;;;11.32;6.25;;;;;;;25.90;41.03;98946.72;5065323;28;20028;-69
2021/08/25 10:32:51;;;;;;;15.20;6.57;;;;;;;25.16;41.11;98946.94;5065265;28;20127;-69
2021/08/25 10:35:30;;;;;;;16.10;6.90;;;;;;;25.22;39.63;98947.31;5065195;28;20036;-69
2021/08/25 10:38:16;;;;;;;12.52;6.18;;;;;;;25.11;40.44;98933.78;5065247;28;20072;-69
2021/08/25 10:40:42;;;;;;;12.00;6.43;;;;;;;25.15;39.93;98940.66;5065076;28;20020;-69
2021/08/25 10:43:08;;;;;;;10.52;6.00;;;;;;;25.25;42.17;98930.94;5065059;28;20250;-69
2021/08/25 10:45:45;;;;;;;14.88;6.72;;;;;;;25.49;41.08;98916.63;5064998;28;20024;-69
2021/08/25 10:48:12;;;;;;;11.40;5.82;;;;;;;26.13;42.81;98918.88;5064963;28;20026;-69
2021/08/25 10:50:50;;;;;;;13.68;5.65;;;;;;;25.79;40.35;98919.72;5064876;28;20016;-69
2021/08/25 10:53:28;;;;;;;12.93;6.13;;;;;;;25.22;42.89;98915.00;5064859;28;20331;-69
2021/08/25 10:56:10;;;;;;;16.73;7.05;;;;;;;25.48;44.13;98905.00;5065023;28;20020;-69
2021/08/25 10:58:49;;;;;;;;;;;;;;;25.47;44.14;98907.81;5065432;28;20062;-69
2021/08/25 11:01:23;;;;;;;10.88;5.50;;;;;;;26.09;42.03;98901.19;5064620;28;20204;-69
2021/08/25 11:03:49;;;;;;;16.23;6.57;;;;;;;25.88;41.37;98903.69;5064805;28;20359;-69
2021/08/25 11:06:34;;;;;;;12.30;6.05;;;;;;;25.33;43.55;98899.88;5064602;28;20035;-69
2021/08/25 11:09:19;;;;;;;14.02;6.07;;;;;;;25.21;44.73;98891.72;5064805;28;20021;-69
2021/08/25 11:12:15;;;;;;;18.27;6.40;;;;;;;25.19;43.86;98888.28;5064016;28;20032;-69
2021/08/25 11:14:51;;;;;;;12.32;5.50;;;;;;;25.99;43.94;98889.41;5051314;28;20087;-69
2021/08/25 11:17:31;;;;;;;11.45;6.00;;;;;;;25.33;42.52;98889.09;5064468;28;20023;-69
2021/08/25 11:20:10;;;;;;;11.80;5.65;;;;;;;24.66;45.05;98885.09;5064486;28;20059;-69
2021/08/25 11:22:47;;;;;;;14.20;7.13;;;;;;;24.54;47.27;98875.19;5064560;28;20025;-69
2021/08/25 11:25:16;;;;;;;11.40;5.45;;;;;;;24.73;44.94;98868.41;5064279;28;20033;-69
2021/08/25 11:27:49;;;;;;;14.40;6.22;;;;;;;24.48;46.38;98863.03;5064250;28;20039;-69
2021/08/25 11:30:15;;;;;;;22.67;6.63;;;;;;;25.27;45.29;98875.09;5064478;28;20181;-69